CYAH

La Grande IV Airport

La Grande, Canada
METAR CYAH 161700Z AUTO 30008KT 260V330 9SM FEW045 22/13 A2969 RMK SLP061 DENSITY ALT 2200FT
Observed Flight Rules
Jul-16 @ 17:00 UTC (an hour ago) Visual Flight Rules
Wind Visibility Clouds
300° at 8 knots 9 miles
  • Few at 4,500' AGL
Temperatures Readings
Current 22°C / 72°F
Dewpoint 13°C / 55°F
Humidity 57%
Altimeter 29.69" Hg
Pressure 1006.1 hPa
Elevation 306
METAR CYAH 161700Z AUTO 30008KT 260V330 9SM FEW045 22/13 A2969 RMK SLP061 DENSITY ALT 2200FT
Observed Flight Rules
Jul-16 @ 17:00 UTC
(an hour ago)
VFR
Wind Visibility
300° at 8 knots 9 miles
Clouds
  • Few at 4,500' AGL
Temperature Dewpoint
22°C / 72°F 13°C / 55°F
Humidity Altimeter Pressure
57% 29.69" Hg 1006.1 hPa